sensor_id;sensor_type;location;lat;lon;timestamp;P1;durP1;ratioP1;P2;durP2;ratioP2
18738;SDS011;9498;51.862;19.460;2023-03-23T00:02:19;45.87;;;19.57;;
18738;SDS011;9498;51.862;19.460;2023-03-23T00:04:46;44.60;;;18.23;;
18738;SDS011;9498;51.862;19.460;2023-03-23T00:07:14;45.37;;;20.20;;
18738;SDS011;9498;51.862;19.460;2023-03-23T00:09:47;42.73;;;18.93;;
18738;SDS011;9498;51.862;19.460;2023-03-23T00:12:18;45.30;;;19.10;;
18738;SDS011;9498;51.862;19.460;2023-03-23T00:14:45;42.10;;;19.00;;
18738;SDS011;9498;51.862;19.460;2023-03-23T00:17:12;40.93;;;19.10;;
18738;SDS011;9498;51.862;19.460;2023-03-23T00:19:40;41.43;;;18.80;;
18738;SDS011;9498;51.862;19.460;2023-03-23T00:22:12;43.53;;;19.27;;
18738;SDS011;9498;51.862;19.460;2023-03-23T00:24:39;42.60;;;18.20;;
18738;SDS011;9498;51.862;19.460;2023-03-23T00:27:08;35.07;;;17.43;;
18738;SDS011;9498;51.862;19.460;2023-03-23T00:29:37;47.03;;;18.93;;
18738;SDS011;9498;51.862;19.460;2023-03-23T00:32:05;40.87;;;18.67;;
18738;SDS011;9498;51.862;19.460;2023-03-23T00:34:37;38.70;;;19.13;;
18738;SDS011;9498;51.862;19.460;2023-03-23T00:37:05;35.70;;;17.70;;
18738;SDS011;9498;51.862;19.460;2023-03-23T00:39:33;35.93;;;18.07;;
18738;SDS011;9498;51.862;19.460;2023-03-23T00:42:02;38.67;;;18.57;;
18738;SDS011;9498;51.862;19.460;2023-03-23T00:44:31;39.70;;;17.60;;
18738;SDS011;9498;51.862;19.460;2023-03-23T00:47:00;39.83;;;18.10;;
18738;SDS011;9498;51.862;19.460;2023-03-23T00:49:28;43.07;;;18.20;;
18738;SDS011;9498;51.862;19.460;2023-03-23T00:51:55;42.60;;;17.20;;
18738;SDS011;9498;51.862;19.460;2023-03-23T00:54:24;36.73;;;17.67;;
18738;SDS011;9498;51.862;19.460;2023-03-23T00:56:51;34.30;;;17.60;;
18738;SDS011;9498;51.862;19.460;2023-03-23T00:59:19;39.33;;;18.07;;
18738;SDS011;9498;51.862;19.460;2023-03-23T01:01:48;35.60;;;17.40;;
18738;SDS011;9498;51.862;19.460;2023-03-23T01:04:15;42.57;;;18.60;;
18738;SDS011;9498;51.862;19.460;2023-03-23T01:06:43;39.03;;;17.83;;
18738;SDS011;9498;51.862;19.460;2023-03-23T01:09:11;40.73;;;17.07;;
18738;SDS011;9498;51.862;19.460;2023-03-23T01:11:39;42.00;;;18.30;;
18738;SDS011;9498;51.862;19.460;2023-03-23T01:14:07;44.00;;;18.50;;
18738;SDS011;9498;51.862;19.460;2023-03-23T01:16:34;40.53;;;18.40;;
18738;SDS011;9498;51.862;19.460;2023-03-23T01:19:03;40.40;;;18.37;;
18738;SDS011;9498;51.862;19.460;2023-03-23T01:21:30;39.73;;;17.97;;
18738;SDS011;9498;51.862;19.460;2023-03-23T01:23:57;39.63;;;17.70;;
18738;SDS011;9498;51.862;19.460;2023-03-23T01:26:25;41.33;;;17.53;;
18738;SDS011;9498;51.862;19.460;2023-03-23T01:28:53;42.17;;;18.60;;
18738;SDS011;9498;51.862;19.460;2023-03-23T01:31:22;41.13;;;18.03;;
18738;SDS011;9498;51.862;19.460;2023-03-23T01:33:49;45.17;;;19.90;;
18738;SDS011;9498;51.862;19.460;2023-03-23T01:36:18;35.30;;;16.50;;
18738;SDS011;9498;51.862;19.460;2023-03-23T01:38:47;37.57;;;18.07;;
18738;SDS011;9498;51.862;19.460;2023-03-23T01:41:15;37.77;;;16.87;;
18738;SDS011;9498;51.862;19.460;2023-03-23T01:46:27;36.83;;;16.60;;
18738;SDS011;9498;51.862;19.460;2023-03-23T01:48:54;40.60;;;16.83;;
18738;SDS011;9498;51.862;19.460;2023-03-23T01:51:24;41.63;;;16.90;;
18738;SDS011;9498;51.862;19.460;2023-03-23T01:53:54;39.23;;;17.30;;
18738;SDS011;9498;51.862;19.460;2023-03-23T01:56:23;33.57;;;16.57;;
18738;SDS011;9498;51.862;19.460;2023-03-23T01:58:51;37.57;;;17.00;;
18738;SDS011;9498;51.862;19.460;2023-03-23T02:01:20;38.67;;;17.77;;
18738;SDS011;9498;51.862;19.460;2023-03-23T02:03:50;39.37;;;17.73;;
18738;SDS011;9498;51.862;19.460;2023-03-23T02:06:18;34.90;;;16.27;;
18738;SDS011;9498;51.862;19.460;2023-03-23T02:08:47;39.00;;;17.23;;
18738;SDS011;9498;51.862;19.460;2023-03-23T02:11:15;43.47;;;20.17;;
18738;SDS011;9498;51.862;19.460;2023-03-23T02:13:43;40.00;;;17.03;;
18738;SDS011;9498;51.862;19.460;2023-03-23T02:16:13;36.37;;;18.10;;
18738;SDS011;9498;51.862;19.460;2023-03-23T02:18:45;38.73;;;17.57;;
18738;SDS011;9498;51.862;19.460;2023-03-23T02:21:26;40.60;;;17.83;;
18738;SDS011;9498;51.862;19.460;2023-03-23T02:24:12;37.17;;;17.20;;
18738;SDS011;9498;51.862;19.460;2023-03-23T02:26:47;37.07;;;17.47;;
18738;SDS011;9498;51.862;19.460;2023-03-23T02:32:39;41.13;;;17.60;;
18738;SDS011;9498;51.862;19.460;2023-03-23T02:35:12;42.40;;;17.60;;
18738;SDS011;9498;51.862;19.460;2023-03-23T02:37:44;40.73;;;17.13;;
18738;SDS011;9498;51.862;19.460;2023-03-23T02:40:14;39.37;;;17.93;;
18738;SDS011;9498;51.862;19.460;2023-03-23T02:42:45;38.35;;;18.58;;
18738;SDS011;9498;51.862;19.460;2023-03-23T02:45:14;37.03;;;16.83;;
18738;SDS011;9498;51.862;19.460;2023-03-23T02:47:42;32.33;;;15.63;;
18738;SDS011;9498;51.862;19.460;2023-03-23T02:50:11;37.43;;;16.97;;
18738;SDS011;9498;51.862;19.460;2023-03-23T02:52:41;34.50;;;16.70;;
18738;SDS011;9498;51.862;19.460;2023-03-23T02:55:09;40.07;;;17.57;;
18738;SDS011;9498;51.862;19.460;2023-03-23T02:57:39;32.93;;;16.30;;
18738;SDS011;9498;51.862;19.460;2023-03-23T03:00:07;37.17;;;17.03;;
18738;SDS011;9498;51.862;19.460;2023-03-23T03:02:36;35.87;;;16.73;;
18738;SDS011;9498;51.862;19.460;2023-03-23T03:05:07;36.53;;;17.33;;
18738;SDS011;9498;51.862;19.460;2023-03-23T03:07:45;36.33;;;16.63;;
18738;SDS011;9498;51.862;19.460;2023-03-23T03:10:16;38.47;;;19.42;;
18738;SDS011;9498;51.862;19.460;2023-03-23T03:12:46;36.20;;;16.33;;
18738;SDS011;9498;51.862;19.460;2023-03-23T03:15:21;35.93;;;16.33;;
18738;SDS011;9498;51.862;19.460;2023-03-23T03:17:52;34.37;;;16.83;;
18738;SDS011;9498;51.862;19.460;2023-03-23T03:20:22;37.10;;;16.77;;
18738;SDS011;9498;51.862;19.460;2023-03-23T03:22:52;35.13;;;15.97;;
18738;SDS011;9498;51.862;19.460;2023-03-23T03:25:20;39.43;;;16.77;;
18738;SDS011;9498;51.862;19.460;2023-03-23T03:27:48;38.63;;;17.30;;
18738;SDS011;9498;51.862;19.460;2023-03-23T03:30:18;40.40;;;16.70;;
18738;SDS011;9498;51.862;19.460;2023-03-23T03:32:49;37.23;;;16.97;;
18738;SDS011;9498;51.862;19.460;2023-03-23T03:35:18;34.97;;;16.17;;
18738;SDS011;9498;51.862;19.460;2023-03-23T03:37:46;37.00;;;16.65;;
18738;SDS011;9498;51.862;19.460;2023-03-23T03:40:16;42.10;;;16.77;;
18738;SDS011;9498;51.862;19.460;2023-03-23T03:42:44;38.13;;;16.03;;
18738;SDS011;9498;51.862;19.460;2023-03-23T03:45:14;34.27;;;15.83;;
18738;SDS011;9498;51.862;19.460;2023-03-23T03:47:42;36.07;;;16.60;;
18738;SDS011;9498;51.862;19.460;2023-03-23T03:50:09;38.27;;;17.40;;
18738;SDS011;9498;51.862;19.460;2023-03-23T03:52:37;36.67;;;16.33;;
18738;SDS011;9498;51.862;19.460;2023-03-23T03:55:05;32.80;;;16.50;;
18738;SDS011;9498;51.862;19.460;2023-03-23T03:57:34;32.73;;;16.10;;
18738;SDS011;9498;51.862;19.460;2023-03-23T04:00:02;37.07;;;17.03;;
18738;SDS011;9498;51.862;19.460;2023-03-23T04:02:39;35.77;;;16.50;;
18738;SDS011;9498;51.862;19.460;2023-03-23T04:05:07;45.93;;;17.40;;
18738;SDS011;9498;51.862;19.460;2023-03-23T04:07:35;33.83;;;16.97;;
18738;SDS011;9498;51.862;19.460;2023-03-23T04:10:04;43.73;;;17.47;;
18738;SDS011;9498;51.862;19.460;2023-03-23T04:12:32;36.90;;;15.60;;
18738;SDS011;9498;51.862;19.460;2023-03-23T04:15:00;31.90;;;15.47;;
18738;SDS011;9498;51.862;19.460;2023-03-23T04:17:28;33.77;;;16.10;;
18738;SDS011;9498;51.862;19.460;2023-03-23T04:19:55;32.13;;;15.23;;
18738;SDS011;9498;51.862;19.460;2023-03-23T04:22:24;34.37;;;15.33;;
18738;SDS011;9498;51.862;19.460;2023-03-23T04:24:55;35.67;;;15.83;;
18738;SDS011;9498;51.862;19.460;2023-03-23T04:27:23;33.83;;;15.53;;
18738;SDS011;9498;51.862;19.460;2023-03-23T04:29:53;35.47;;;17.25;;
18738;SDS011;9498;51.862;19.460;2023-03-23T04:32:21;34.70;;;16.10;;
18738;SDS011;9498;51.862;19.460;2023-03-23T04:34:50;43.07;;;15.83;;
18738;SDS011;9498;51.862;19.460;2023-03-23T04:37:17;36.93;;;14.80;;
18738;SDS011;9498;51.862;19.460;2023-03-23T04:39:45;32.57;;;14.50;;
18738;SDS011;9498;51.862;19.460;2023-03-23T04:42:12;30.33;;;14.80;;
18738;SDS011;9498;51.862;19.460;2023-03-23T04:44:40;35.63;;;14.60;;
18738;SDS011;9498;51.862;19.460;2023-03-23T04:47:08;32.87;;;14.07;;
18738;SDS011;9498;51.862;19.460;2023-03-23T04:49:37;31.73;;;14.77;;
18738;SDS011;9498;51.862;19.460;2023-03-23T04:52:04;33.67;;;14.53;;
18738;SDS011;9498;51.862;19.460;2023-03-23T04:54:31;30.30;;;13.97;;
18738;SDS011;9498;51.862;19.460;2023-03-23T04:56:58;28.77;;;14.13;;
18738;SDS011;9498;51.862;19.460;2023-03-23T04:59:26;31.40;;;13.60;;
18738;SDS011;9498;51.862;19.460;2023-03-23T05:01:53;30.20;;;14.38;;
18738;SDS011;9498;51.862;19.460;2023-03-23T05:04:21;28.40;;;14.10;;
18738;SDS011;9498;51.862;19.460;2023-03-23T05:06:51;29.60;;;14.90;;
18738;SDS011;9498;51.862;19.460;2023-03-23T05:09:18;32.80;;;14.63;;
18738;SDS011;9498;51.862;19.460;2023-03-23T05:11:46;32.87;;;14.73;;
18738;SDS011;9498;51.862;19.460;2023-03-23T05:14:13;29.33;;;14.77;;
18738;SDS011;9498;51.862;19.460;2023-03-23T05:16:40;30.27;;;13.63;;
18738;SDS011;9498;51.862;19.460;2023-03-23T05:19:12;35.63;;;15.63;;
18738;SDS011;9498;51.862;19.460;2023-03-23T05:21:39;37.33;;;14.67;;
18738;SDS011;9498;51.862;19.460;2023-03-23T05:24:08;32.87;;;14.83;;
18738;SDS011;9498;51.862;19.460;2023-03-23T05:26:35;28.63;;;14.40;;
18738;SDS011;9498;51.862;19.460;2023-03-23T05:29:02;33.73;;;13.33;;
18738;SDS011;9498;51.862;19.460;2023-03-23T05:31:30;26.50;;;13.67;;
18738;SDS011;9498;51.862;19.460;2023-03-23T05:33:57;29.20;;;14.10;;
18738;SDS011;9498;51.862;19.460;2023-03-23T05:36:24;35.23;;;14.27;;
18738;SDS011;9498;51.862;19.460;2023-03-23T05:38:51;24.10;;;12.90;;
18738;SDS011;9498;51.862;19.460;2023-03-23T05:41:20;27.87;;;13.33;;
18738;SDS011;9498;51.862;19.460;2023-03-23T05:43:48;26.77;;;13.30;;
18738;SDS011;9498;51.862;19.460;2023-03-23T05:46:15;31.57;;;13.63;;
18738;SDS011;9498;51.862;19.460;2023-03-23T05:48:44;40.00;;;18.42;;
18738;SDS011;9498;51.862;19.460;2023-03-23T05:51:11;25.43;;;12.50;;
18738;SDS011;9498;51.862;19.460;2023-03-23T05:53:38;27.53;;;11.80;;
18738;SDS011;9498;51.862;19.460;2023-03-23T05:56:06;29.10;;;13.13;;
18738;SDS011;9498;51.862;19.460;2023-03-23T05:58:34;25.13;;;11.47;;
18738;SDS011;9498;51.862;19.460;2023-03-23T06:01:05;25.38;;;13.10;;
18738;SDS011;9498;51.862;19.460;2023-03-23T06:03:33;24.13;;;11.77;;
18738;SDS011;9498;51.862;19.460;2023-03-23T06:06:01;23.30;;;11.53;;
18738;SDS011;9498;51.862;19.460;2023-03-23T06:08:28;28.87;;;12.63;;
18738;SDS011;9498;51.862;19.460;2023-03-23T06:10:55;24.90;;;11.73;;
18738;SDS011;9498;51.862;19.460;2023-03-23T06:13:22;25.27;;;10.87;;
18738;SDS011;9498;51.862;19.460;2023-03-23T06:15:54;26.00;;;11.00;;
18738;SDS011;9498;51.862;19.460;2023-03-23T06:18:22;17.87;;;10.20;;
18738;SDS011;9498;51.862;19.460;2023-03-23T06:20:50;18.93;;;9.97;;
18738;SDS011;9498;51.862;19.460;2023-03-23T06:23:17;19.57;;;9.93;;
18738;SDS011;9498;51.862;19.460;2023-03-23T06:25:45;18.47;;;9.57;;
18738;SDS011;9498;51.862;19.460;2023-03-23T06:28:12;19.67;;;10.23;;
18738;SDS011;9498;51.862;19.460;2023-03-23T06:30:40;16.97;;;9.40;;
18738;SDS011;9498;51.862;19.460;2023-03-23T06:33:09;19.23;;;9.77;;
18738;SDS011;9498;51.862;19.460;2023-03-23T06:35:36;17.27;;;9.50;;
18738;SDS011;9498;51.862;19.460;2023-03-23T06:38:03;19.50;;;9.97;;
18738;SDS011;9498;51.862;19.460;2023-03-23T06:40:30;20.17;;;10.47;;
18738;SDS011;9498;51.862;19.460;2023-03-23T06:42:57;20.90;;;9.60;;
18738;SDS011;9498;51.862;19.460;2023-03-23T06:45:25;19.43;;;10.20;;
18738;SDS011;9498;51.862;19.460;2023-03-23T06:47:52;24.37;;;9.97;;
18738;SDS011;9498;51.862;19.460;2023-03-23T06:50:21;25.40;;;10.00;;
18738;SDS011;9498;51.862;19.460;2023-03-23T06:52:49;18.87;;;9.90;;
18738;SDS011;9498;51.862;19.460;2023-03-23T06:55:17;18.70;;;10.13;;
18738;SDS011;9498;51.862;19.460;2023-03-23T06:57:44;19.87;;;10.03;;
18738;SDS011;9498;51.862;19.460;2023-03-23T07:00:12;20.37;;;10.50;;
18738;SDS011;9498;51.862;19.460;2023-03-23T07:02:40;18.47;;;9.70;;
18738;SDS011;9498;51.862;19.460;2023-03-23T07:05:07;20.37;;;10.13;;
18738;SDS011;9498;51.862;19.460;2023-03-23T07:07:36;19.90;;;9.87;;
18738;SDS011;9498;51.862;19.460;2023-03-23T07:10:04;18.03;;;9.27;;
18738;SDS011;9498;51.862;19.460;2023-03-23T07:12:32;20.87;;;10.13;;
18738;SDS011;9498;51.862;19.460;2023-03-23T07:15:00;21.73;;;9.67;;
18738;SDS011;9498;51.862;19.460;2023-03-23T07:17:28;22.07;;;10.13;;
18738;SDS011;9498;51.862;19.460;2023-03-23T07:19:55;26.30;;;9.97;;
18738;SDS011;9498;51.862;19.460;2023-03-23T07:22:22;18.77;;;9.70;;
18738;SDS011;9498;51.862;19.460;2023-03-23T07:24:51;22.07;;;10.10;;
18738;SDS011;9498;51.862;19.460;2023-03-23T07:27:18;18.87;;;9.57;;
18738;SDS011;9498;51.862;19.460;2023-03-23T07:29:45;17.90;;;8.80;;
18738;SDS011;9498;51.862;19.460;2023-03-23T07:32:12;24.27;;;9.57;;
18738;SDS011;9498;51.862;19.460;2023-03-23T07:34:39;17.30;;;9.13;;
18738;SDS011;9498;51.862;19.460;2023-03-23T07:37:07;20.03;;;8.93;;
18738;SDS011;9498;51.862;19.460;2023-03-23T07:39:34;21.87;;;8.73;;
18738;SDS011;9498;51.862;19.460;2023-03-23T07:42:03;15.37;;;8.63;;
18738;SDS011;9498;51.862;19.460;2023-03-23T07:44:32;17.20;;;8.73;;
18738;SDS011;9498;51.862;19.460;2023-03-23T07:46:59;18.23;;;8.77;;
18738;SDS011;9498;51.862;19.460;2023-03-23T07:49:27;17.80;;;8.60;;
18738;SDS011;9498;51.862;19.460;2023-03-23T07:51:55;19.20;;;8.37;;
18738;SDS011;9498;51.862;19.460;2023-03-23T07:54:23;19.33;;;7.87;;
18738;SDS011;9498;51.862;19.460;2023-03-23T07:56:50;15.07;;;8.53;;
18738;SDS011;9498;51.862;19.460;2023-03-23T07:59:19;16.73;;;7.53;;
18738;SDS011;9498;51.862;19.460;2023-03-23T08:01:46;19.67;;;7.13;;
18738;SDS011;9498;51.862;19.460;2023-03-23T08:04:14;11.87;;;7.17;;
18738;SDS011;9498;51.862;19.460;2023-03-23T08:06:41;16.20;;;7.60;;
18738;SDS011;9498;51.862;19.460;2023-03-23T08:09:08;13.03;;;6.93;;
18738;SDS011;9498;51.862;19.460;2023-03-23T08:11:35;14.77;;;7.10;;
18738;SDS011;9498;51.862;19.460;2023-03-23T08:14:03;15.97;;;7.57;;
18738;SDS011;9498;51.862;19.460;2023-03-23T08:16:32;16.70;;;7.20;;
18738;SDS011;9498;51.862;19.460;2023-03-23T08:18:59;12.87;;;6.67;;
18738;SDS011;9498;51.862;19.460;2023-03-23T08:21:27;13.83;;;6.53;;
18738;SDS011;9498;51.862;19.460;2023-03-23T08:23:54;13.53;;;5.97;;
18738;SDS011;9498;51.862;19.460;2023-03-23T08:26:21;11.37;;;5.97;;
18738;SDS011;9498;51.862;19.460;2023-03-23T08:28:49;11.50;;;5.90;;
18738;SDS011;9498;51.862;19.460;2023-03-23T08:31:16;12.83;;;5.67;;
18738;SDS011;9498;51.862;19.460;2023-03-23T08:33:45;12.37;;;5.63;;
18738;SDS011;9498;51.862;19.460;2023-03-23T08:36:12;11.67;;;6.20;;
18738;SDS011;9498;51.862;19.460;2023-03-23T08:38:39;11.97;;;6.10;;
18738;SDS011;9498;51.862;19.460;2023-03-23T08:41:08;14.90;;;6.30;;
18738;SDS011;9498;51.862;19.460;2023-03-23T08:43:35;11.33;;;5.87;;
18738;SDS011;9498;51.862;19.460;2023-03-23T08:46:05;8.23;;;5.07;;
18738;SDS011;9498;51.862;19.460;2023-03-23T08:48:35;13.67;;;5.33;;
18738;SDS011;9498;51.862;19.460;2023-03-23T08:51:05;11.53;;;5.27;;
18738;SDS011;9498;51.862;19.460;2023-03-23T08:53:33;10.23;;;5.07;;
18738;SDS011;9498;51.862;19.460;2023-03-23T08:56:05;11.90;;;5.27;;
18738;SDS011;9498;51.862;19.460;2023-03-23T08:58:32;10.83;;;5.43;;
18738;SDS011;9498;51.862;19.460;2023-03-23T09:01:00;11.20;;;5.70;;
18738;SDS011;9498;51.862;19.460;2023-03-23T09:03:27;12.27;;;5.30;;
18738;SDS011;9498;51.862;19.460;2023-03-23T09:05:57;16.13;;;5.53;;
18738;SDS011;9498;51.862;19.460;2023-03-23T09:08:26;9.03;;;5.07;;
18738;SDS011;9498;51.862;19.460;2023-03-23T09:10:54;7.77;;;4.07;;
18738;SDS011;9498;51.862;19.460;2023-03-23T09:13:21;11.03;;;3.80;;
18738;SDS011;9498;51.862;19.460;2023-03-23T09:15:48;10.03;;;3.97;;
18738;SDS011;9498;51.862;19.460;2023-03-23T09:18:17;10.03;;;3.20;;
18738;SDS011;9498;51.862;19.460;2023-03-23T09:20:44;5.80;;;3.40;;
18738;SDS011;9498;51.862;19.460;2023-03-23T09:23:12;7.30;;;3.63;;
18738;SDS011;9498;51.862;19.460;2023-03-23T09:25:41;6.50;;;3.72;;
18738;SDS011;9498;51.862;19.460;2023-03-23T09:28:09;9.73;;;3.93;;
18738;SDS011;9498;51.862;19.460;2023-03-23T09:30:37;5.97;;;3.30;;
18738;SDS011;9498;51.862;19.460;2023-03-23T09:33:06;5.83;;;3.13;;
18738;SDS011;9498;51.862;19.460;2023-03-23T09:35:34;4.67;;;3.00;;
18738;SDS011;9498;51.862;19.460;2023-03-23T09:38:03;6.13;;;3.30;;
18738;SDS011;9498;51.862;19.460;2023-03-23T09:40:32;6.40;;;3.13;;
18738;SDS011;9498;51.862;19.460;2023-03-23T09:46:10;5.77;;;2.80;;
18738;SDS011;9498;51.862;19.460;2023-03-23T09:48:43;4.97;;;2.87;;
18738;SDS011;9498;51.862;19.460;2023-03-23T09:51:14;4.77;;;2.77;;
18738;SDS011;9498;51.862;19.460;2023-03-23T09:53:44;6.10;;;2.90;;
18738;SDS011;9498;51.862;19.460;2023-03-23T09:56:13;4.90;;;2.77;;
18738;SDS011;9498;51.862;19.460;2023-03-23T09:58:45;4.53;;;2.37;;
18738;SDS011;9498;51.862;19.460;2023-03-23T10:01:15;5.05;;;2.80;;
18738;SDS011;9498;51.862;19.460;2023-03-23T10:03:44;4.03;;;2.30;;
18738;SDS011;9498;51.862;19.460;2023-03-23T10:06:13;4.70;;;2.20;;
18738;SDS011;9498;51.862;19.460;2023-03-23T10:08:44;4.53;;;1.93;;
18738;SDS011;9498;51.862;19.460;2023-03-23T10:11:12;7.10;;;2.47;;
18738;SDS011;9498;51.862;19.460;2023-03-23T10:14:03;5.17;;;3.07;;
18738;SDS011;9498;51.862;19.460;2023-03-23T10:16:42;7.00;;;3.20;;
18738;SDS011;9498;51.862;19.460;2023-03-23T10:19:11;5.90;;;3.20;;
18738;SDS011;9498;51.862;19.460;2023-03-23T10:21:41;7.73;;;3.50;;
18738;SDS011;9498;51.862;19.460;2023-03-23T10:24:09;7.97;;;3.47;;
18738;SDS011;9498;51.862;19.460;2023-03-23T10:26:39;5.40;;;2.67;;
18738;SDS011;9498;51.862;19.460;2023-03-23T10:29:11;6.83;;;3.13;;
18738;SDS011;9498;51.862;19.460;2023-03-23T10:31:41;7.77;;;3.47;;
18738;SDS011;9498;51.862;19.460;2023-03-23T10:34:10;8.88;;;3.60;;
18738;SDS011;9498;51.862;19.460;2023-03-23T10:36:42;7.47;;;3.10;;
18738;SDS011;9498;51.862;19.460;2023-03-23T10:39:11;6.93;;;3.20;;
18738;SDS011;9498;51.862;19.460;2023-03-23T10:41:40;6.80;;;3.17;;
18738;SDS011;9498;51.862;19.460;2023-03-23T10:44:10;6.70;;;3.43;;
18738;SDS011;9498;51.862;19.460;2023-03-23T10:46:40;9.10;;;3.73;;
18738;SDS011;9498;51.862;19.460;2023-03-23T10:49:15;8.77;;;3.43;;
18738;SDS011;9498;51.862;19.460;2023-03-23T10:51:44;8.47;;;3.93;;
18738;SDS011;9498;51.862;19.460;2023-03-23T10:54:11;9.13;;;3.80;;
18738;SDS011;9498;51.862;19.460;2023-03-23T10:56:39;7.87;;;3.90;;
18738;SDS011;9498;51.862;19.460;2023-03-23T10:59:13;14.10;;;3.73;;
18738;SDS011;9498;51.862;19.460;2023-03-23T11:01:42;12.87;;;4.67;;
18738;SDS011;9498;51.862;19.460;2023-03-23T11:04:11;10.83;;;3.83;;
18738;SDS011;9498;51.862;19.460;2023-03-23T11:06:42;7.63;;;3.37;;
18738;SDS011;9498;51.862;19.460;2023-03-23T11:09:10;10.85;;;4.13;;
18738;SDS011;9498;51.862;19.460;2023-03-23T11:11:39;7.37;;;3.73;;
18738;SDS011;9498;51.862;19.460;2023-03-23T11:14:14;6.87;;;3.47;;
18738;SDS011;9498;51.862;19.460;2023-03-23T11:16:43;8.57;;;3.57;;
18738;SDS011;9498;51.862;19.460;2023-03-23T11:19:12;6.33;;;3.20;;
18738;SDS011;9498;51.862;19.460;2023-03-23T11:21:39;10.93;;;4.03;;
18738;SDS011;9498;51.862;19.460;2023-03-23T11:24:07;7.53;;;3.10;;
18738;SDS011;9498;51.862;19.460;2023-03-23T11:26:35;10.17;;;3.80;;
18738;SDS011;9498;51.862;19.460;2023-03-23T11:29:04;10.88;;;3.97;;
18738;SDS011;9498;51.862;19.460;2023-03-23T11:31:34;9.40;;;3.70;;
18738;SDS011;9498;51.862;19.460;2023-03-23T11:34:03;8.33;;;3.80;;
18738;SDS011;9498;51.862;19.460;2023-03-23T11:36:32;6.10;;;3.50;;
18738;SDS011;9498;51.862;19.460;2023-03-23T11:39:00;7.53;;;3.43;;
18738;SDS011;9498;51.862;19.460;2023-03-23T11:41:31;8.40;;;3.50;;
18738;SDS011;9498;51.862;19.460;2023-03-23T11:44:02;7.97;;;3.70;;
18738;SDS011;9498;51.862;19.460;2023-03-23T11:46:32;7.32;;;3.60;;
18738;SDS011;9498;51.862;19.460;2023-03-23T11:49:02;7.50;;;3.80;;
18738;SDS011;9498;51.862;19.460;2023-03-23T11:51:33;9.10;;;3.73;;
18738;SDS011;9498;51.862;19.460;2023-03-23T11:54:04;7.33;;;3.13;;
18738;SDS011;9498;51.862;19.460;2023-03-23T11:56:33;9.63;;;4.53;;
18738;SDS011;9498;51.862;19.460;2023-03-23T11:59:01;8.77;;;4.10;;
18738;SDS011;9498;51.862;19.460;2023-03-23T12:01:37;13.90;;;4.73;;
18738;SDS011;9498;51.862;19.460;2023-03-23T12:07:08;10.50;;;4.37;;
18738;SDS011;9498;51.862;19.460;2023-03-23T12:09:43;7.80;;;3.93;;
18738;SDS011;9498;51.862;19.460;2023-03-23T12:12:16;7.20;;;3.90;;
18738;SDS011;9498;51.862;19.460;2023-03-23T12:14:47;6.63;;;3.57;;
18738;SDS011;9498;51.862;19.460;2023-03-23T12:17:20;8.10;;;4.23;;
18738;SDS011;9498;51.862;19.460;2023-03-23T12:19:55;8.40;;;4.30;;
18738;SDS011;9498;51.862;19.460;2023-03-23T12:22:28;7.55;;;4.10;;
18738;SDS011;9498;51.862;19.460;2023-03-23T12:25:01;6.97;;;3.83;;
18738;SDS011;9498;51.862;19.460;2023-03-23T12:27:33;11.03;;;3.97;;
18738;SDS011;9498;51.862;19.460;2023-03-23T12:30:05;6.33;;;3.37;;
18738;SDS011;9498;51.862;19.460;2023-03-23T12:32:52;14.30;;;3.63;;
18738;SDS011;9498;51.862;19.460;2023-03-23T12:35:27;7.50;;;3.80;;
18738;SDS011;9498;51.862;19.460;2023-03-23T12:38:01;10.60;;;4.20;;
18738;SDS011;9498;51.862;19.460;2023-03-23T12:40:33;6.83;;;3.90;;
18738;SDS011;9498;51.862;19.460;2023-03-23T12:43:05;10.90;;;3.70;;
18738;SDS011;9498;51.862;19.460;2023-03-23T12:48:26;6.30;;;3.60;;
18738;SDS011;9498;51.862;19.460;2023-03-23T12:51:10;9.40;;;4.23;;
18738;SDS011;9498;51.862;19.460;2023-03-23T12:53:41;7.87;;;4.30;;
18738;SDS011;9498;51.862;19.460;2023-03-23T12:56:12;12.87;;;4.33;;
18738;SDS011;9498;51.862;19.460;2023-03-23T12:58:42;8.93;;;4.23;;
18738;SDS011;9498;51.862;19.460;2023-03-23T13:01:11;9.60;;;4.07;;
18738;SDS011;9498;51.862;19.460;2023-03-23T13:03:42;9.13;;;4.28;;
18738;SDS011;9498;51.862;19.460;2023-03-23T13:06:12;8.77;;;4.10;;
18738;SDS011;9498;51.862;19.460;2023-03-23T13:08:44;8.00;;;4.13;;
18738;SDS011;9498;51.862;19.460;2023-03-23T13:11:14;7.00;;;3.70;;
18738;SDS011;9498;51.862;19.460;2023-03-23T13:13:45;9.93;;;4.17;;
18738;SDS011;9498;51.862;19.460;2023-03-23T13:16:16;8.33;;;3.80;;
18738;SDS011;9498;51.862;19.460;2023-03-23T13:18:47;9.13;;;3.77;;
18738;SDS011;9498;51.862;19.460;2023-03-23T13:21:18;10.63;;;4.13;;
18738;SDS011;9498;51.862;19.460;2023-03-23T13:23:47;9.82;;;4.15;;
18738;SDS011;9498;51.862;19.460;2023-03-23T13:26:17;8.33;;;3.83;;
18738;SDS011;9498;51.862;19.460;2023-03-23T13:28:51;7.93;;;3.63;;
18738;SDS011;9498;51.862;19.460;2023-03-23T13:31:22;7.03;;;3.33;;
18738;SDS011;9498;51.862;19.460;2023-03-23T13:33:57;6.40;;;3.40;;
18738;SDS011;9498;51.862;19.460;2023-03-23T13:36:30;9.57;;;3.40;;
18738;SDS011;9498;51.862;19.460;2023-03-23T13:38:59;8.10;;;3.27;;
18738;SDS011;9498;51.862;19.460;2023-03-23T13:41:29;9.10;;;3.43;;
18738;SDS011;9498;51.862;19.460;2023-03-23T13:46:39;5.20;;;2.90;;
18738;SDS011;9498;51.862;19.460;2023-03-23T13:49:16;6.37;;;3.10;;
18738;SDS011;9498;51.862;19.460;2023-03-23T13:51:51;4.83;;;2.80;;
18738;SDS011;9498;51.862;19.460;2023-03-23T13:54:23;8.10;;;3.33;;
18738;SDS011;9498;51.862;19.460;2023-03-23T13:56:55;7.67;;;3.20;;
18738;SDS011;9498;51.862;19.460;2023-03-23T13:59:30;9.10;;;3.20;;
18738;SDS011;9498;51.862;19.460;2023-03-23T14:04:40;6.00;;;3.37;;
18738;SDS011;9498;51.862;19.460;2023-03-23T14:07:10;8.87;;;3.20;;
18738;SDS011;9498;51.862;19.460;2023-03-23T14:09:38;7.37;;;2.90;;
18738;SDS011;9498;51.862;19.460;2023-03-23T14:12:13;11.63;;;3.40;;
18738;SDS011;9498;51.862;19.460;2023-03-23T14:14:42;7.40;;;3.00;;
18738;SDS011;9498;51.862;19.460;2023-03-23T14:17:12;5.93;;;2.73;;
18738;SDS011;9498;51.862;19.460;2023-03-23T14:19:40;8.17;;;2.90;;
18738;SDS011;9498;51.862;19.460;2023-03-23T14:22:17;5.77;;;2.77;;
18738;SDS011;9498;51.862;19.460;2023-03-23T14:24:45;4.90;;;2.47;;
18738;SDS011;9498;51.862;19.460;2023-03-23T14:27:14;6.13;;;2.73;;
18738;SDS011;9498;51.862;19.460;2023-03-23T14:29:42;7.17;;;3.17;;
18738;SDS011;9498;51.862;19.460;2023-03-23T14:32:12;7.63;;;2.83;;
18738;SDS011;9498;51.862;19.460;2023-03-23T14:34:40;7.27;;;2.90;;
18738;SDS011;9498;51.862;19.460;2023-03-23T14:37:09;8.13;;;2.93;;
18738;SDS011;9498;51.862;19.460;2023-03-23T14:39:39;9.00;;;3.20;;
18738;SDS011;9498;51.862;19.460;2023-03-23T14:42:10;6.43;;;3.10;;
18738;SDS011;9498;51.862;19.460;2023-03-23T14:44:39;7.60;;;2.97;;
18738;SDS011;9498;51.862;19.460;2023-03-23T14:47:10;7.60;;;3.50;;
18738;SDS011;9498;51.862;19.460;2023-03-23T14:49:41;6.80;;;3.10;;
18738;SDS011;9498;51.862;19.460;2023-03-23T14:52:10;6.87;;;3.57;;
18738;SDS011;9498;51.862;19.460;2023-03-23T14:54:37;8.17;;;3.67;;
18738;SDS011;9498;51.862;19.460;2023-03-23T14:57:11;8.20;;;3.67;;
18738;SDS011;9498;51.862;19.460;2023-03-23T14:59:39;5.27;;;2.70;;
18738;SDS011;9498;51.862;19.460;2023-03-23T15:02:08;5.83;;;3.00;;
18738;SDS011;9498;51.862;19.460;2023-03-23T15:04:36;6.23;;;3.13;;
18738;SDS011;9498;51.862;19.460;2023-03-23T15:07:04;10.80;;;3.17;;